createdAt,value
2022-09-30T00:01:11.189Z,6.57
2022-09-30T00:03:38.774Z,6.53
2022-09-30T00:06:08.648Z,6.55
2022-09-30T00:08:37.694Z,7.95
2022-09-30T00:11:13.663Z,8.40
2022-09-30T00:13:41.288Z,8.93
2022-09-30T00:16:10.732Z,8.38
2022-09-30T00:18:38.828Z,8.38
2022-09-30T00:21:07.317Z,8.70
2022-09-30T00:23:37.958Z,7.78
2022-09-30T00:26:08.753Z,8.82
2022-09-30T00:28:36.864Z,7.87
2022-09-30T00:31:06.543Z,7.47
2022-09-30T00:33:34.919Z,6.93
2022-09-30T00:36:03.001Z,6.90
2022-09-30T00:38:30.413Z,7.47
2022-09-30T00:40:59.760Z,8.23
2022-09-30T00:43:51.573Z,8.32
2022-09-30T00:46:27.180Z,7.25
2022-09-30T00:48:55.835Z,7.87
2022-09-30T00:51:28.947Z,8.15
2022-09-30T00:54:00.765Z,8.18
2022-09-30T00:56:31.887Z,8.27
2022-09-30T00:59:05.340Z,7.80
2022-09-30T01:01:33.091Z,8.40
2022-09-30T01:04:03.972Z,8.20
2022-09-30T01:06:31.369Z,8.27
2022-09-30T01:08:58.967Z,8.63
2022-09-30T01:11:28.223Z,8.63
2022-09-30T01:13:58.162Z,8.85
2022-09-30T01:16:34.697Z,8.18
2022-09-30T01:19:59.074Z,8.70
2022-09-30T01:22:32.563Z,8.10
2022-09-30T01:25:04.363Z,8.50
2022-09-30T01:27:50.396Z,7.82
2022-09-30T01:30:45.467Z,7.85
2022-09-30T01:33:40.817Z,8.50
2022-09-30T01:36:14.464Z,7.70
2022-09-30T01:39:00.341Z,8.05
2022-09-30T01:41:32.982Z,7.30
2022-09-30T01:44:12.843Z,7.30
2022-09-30T01:46:48.501Z,6.55
2022-09-30T01:50:00.159Z,7.70
2022-09-30T01:52:50.508Z,8.18
2022-09-30T01:55:38.168Z,8.32
2022-09-30T01:58:16.213Z,7.87
2022-09-30T02:00:49.311Z,8.15
2022-09-30T02:03:25.672Z,7.40
2022-09-30T02:05:56.080Z,8.23
2022-09-30T02:08:29.069Z,7.75
2022-09-30T02:11:03.183Z,8.40
2022-09-30T02:13:37.874Z,7.43
2022-09-30T02:16:12.979Z,6.43
2022-09-30T02:18:47.992Z,7.35
2022-09-30T02:21:19.724Z,7.35
2022-09-30T02:23:48.022Z,7.85
2022-09-30T02:26:23.087Z,6.82
2022-09-30T02:28:57.690Z,7.20
2022-09-30T02:31:27.162Z,7.25
2022-09-30T02:34:02.006Z,7.28
2022-09-30T02:36:33.661Z,7.12
2022-09-30T02:39:06.079Z,8.57
2022-09-30T02:41:38.819Z,9.10
2022-09-30T02:44:06.714Z,8.70
2022-09-30T02:46:42.899Z,9.00
2022-09-30T02:49:32.550Z,8.40
2022-09-30T02:52:08.280Z,9.07
2022-09-30T02:54:51.094Z,7.68
2022-09-30T02:57:40.040Z,7.90
2022-09-30T03:00:12.686Z,8.52
2022-09-30T03:02:41.444Z,8.68
2022-09-30T03:05:10.047Z,8.07
2022-09-30T03:07:38.164Z,8.43
2022-09-30T03:10:15.581Z,7.28
2022-09-30T03:12:46.125Z,6.87
2022-09-30T03:15:16.432Z,6.45
2022-09-30T03:18:03.663Z,6.32
2022-09-30T03:20:39.257Z,6.60
2022-09-30T03:23:19.143Z,6.15
2022-09-30T03:25:58.994Z,5.72
2022-09-30T03:28:31.108Z,7.18
2022-09-30T03:31:28.293Z,7.45
2022-09-30T03:34:05.427Z,7.72
2022-09-30T03:36:40.060Z,7.72
2022-09-30T03:39:10.481Z,8.02
2022-09-30T03:41:46.600Z,8.40
2022-09-30T03:44:23.713Z,9.07
2022-09-30T03:46:57.409Z,7.50
2022-09-30T03:49:28.657Z,8.10
2022-09-30T03:51:58.818Z,8.00
2022-09-30T03:54:26.635Z,7.82
2022-09-30T03:56:54.368Z,8.40
2022-09-30T03:59:27.958Z,9.68
2022-09-30T04:01:57.486Z,10.27
2022-09-30T04:04:25.613Z,10.18
2022-09-30T04:06:53.031Z,9.25
2022-09-30T04:09:20.508Z,10.23
2022-09-30T04:11:48.299Z,12.00
2022-09-30T04:14:15.698Z,9.68
2022-09-30T04:16:43.219Z,7.87
2022-09-30T04:19:10.907Z,7.72
2022-09-30T04:21:38.249Z,7.47
2022-09-30T04:24:05.745Z,8.10
2022-09-30T04:26:33.411Z,7.93
2022-09-30T04:29:00.761Z,7.57
2022-09-30T04:31:28.326Z,7.93
2022-09-30T04:33:59.023Z,7.90
2022-09-30T04:36:26.428Z,8.77
2022-09-30T04:38:53.787Z,8.40
2022-09-30T04:41:21.895Z,7.75
2022-09-30T04:43:49.310Z,7.72
2022-09-30T04:46:18.100Z,8.07
2022-09-30T04:48:46.670Z,8.35
2022-09-30T04:51:15.388Z,8.55
2022-09-30T04:53:43.214Z,8.02
2022-09-30T04:56:11.353Z,7.40
2022-09-30T04:58:38.690Z,8.80
2022-09-30T05:01:08.199Z,8.48
2022-09-30T05:03:36.537Z,9.07
2022-09-30T05:06:05.297Z,8.95
2022-09-30T05:08:36.032Z,9.30
2022-09-30T05:11:08.471Z,9.25
2022-09-30T05:13:38.343Z,9.35
2022-09-30T05:16:07.361Z,8.93
2022-09-30T05:18:34.937Z,9.65
2022-09-30T05:21:03.818Z,9.32
2022-09-30T05:23:32.950Z,9.68
2022-09-30T05:26:01.418Z,9.90
2022-09-30T05:28:31.229Z,8.60
2022-09-30T05:31:06.183Z,9.45
2022-09-30T05:33:34.922Z,9.25
2022-09-30T05:36:07.195Z,8.60
2022-09-30T05:38:35.321Z,9.48
2022-09-30T05:41:13.573Z,9.75
2022-09-30T05:43:42.624Z,10.07
2022-09-30T05:46:10.203Z,10.30
2022-09-30T05:48:37.631Z,10.90
2022-09-30T05:51:05.271Z,10.23
2022-09-30T05:53:34.620Z,10.07
2022-09-30T05:56:02.259Z,10.02
2022-09-30T05:58:29.979Z,10.10
2022-09-30T06:01:00.469Z,10.70
2022-09-30T06:03:33.270Z,10.02
2022-09-30T06:06:00.999Z,9.88
2022-09-30T06:08:28.623Z,10.07
2022-09-30T06:10:56.431Z,10.90
2022-09-30T06:13:24.178Z,9.77
2022-09-30T06:15:59.285Z,9.95
2022-09-30T06:18:28.610Z,9.75
2022-09-30T06:20:56.885Z,10.73
2022-09-30T06:23:24.637Z,10.65
2022-09-30T06:25:53.984Z,11.68
2022-09-30T06:28:22.310Z,10.65
2022-09-30T06:30:50.032Z,10.13
2022-09-30T06:33:18.067Z,10.10
2022-09-30T06:35:47.445Z,10.23
2022-09-30T06:38:15.948Z,10.75
2022-09-30T06:40:44.586Z,12.05
2022-09-30T06:43:12.105Z,11.25
2022-09-30T06:45:40.177Z,9.85
2022-09-30T06:48:09.129Z,9.20
2022-09-30T06:50:39.250Z,9.60
2022-09-30T06:53:08.587Z,10.27
2022-09-30T06:55:39.558Z,10.05
2022-09-30T06:58:09.777Z,9.68
2022-09-30T07:00:37.758Z,9.05
2022-09-30T07:03:09.788Z,8.85
2022-09-30T07:05:37.687Z,7.60
2022-09-30T07:08:05.908Z,7.75
2022-09-30T07:10:33.406Z,7.85
2022-09-30T07:13:02.566Z,8.25
2022-09-30T07:15:29.895Z,8.20
2022-09-30T07:17:57.673Z,7.37
2022-09-30T07:20:25.551Z,7.70
2022-09-30T07:22:53.004Z,8.02
2022-09-30T07:25:20.509Z,7.85
2022-09-30T07:27:48.227Z,7.93
2022-09-30T07:30:25.788Z,7.47
2022-09-30T07:32:54.598Z,7.35
2022-09-30T07:35:21.998Z,6.80
2022-09-30T07:37:50.486Z,6.28
2022-09-30T07:40:18.102Z,6.32
2022-09-30T07:42:45.839Z,6.50
2022-09-30T07:45:18.904Z,6.47
2022-09-30T07:47:52.570Z,6.05
2022-09-30T07:50:21.222Z,7.68
2022-09-30T07:52:49.110Z,8.68
2022-09-30T07:55:16.489Z,9.05
2022-09-30T07:57:43.953Z,10.45
2022-09-30T08:00:40.641Z,9.45
2022-09-30T08:02:59.910Z,9.40
2022-09-30T08:05:27.467Z,10.15
2022-09-30T08:07:54.930Z,10.57
2022-09-30T08:10:22.593Z,10.57
2022-09-30T08:12:51.081Z,12.15
2022-09-30T08:15:19.829Z,11.98
2022-09-30T08:17:47.455Z,11.93
2022-09-30T08:20:18.802Z,12.95
2022-09-30T08:22:53.156Z,12.95
2022-09-30T08:25:22.698Z,13.45
2022-09-30T08:27:50.874Z,13.02
2022-09-30T08:30:18.321Z,12.98
2022-09-30T08:32:45.672Z,14.18
2022-09-30T08:35:13.300Z,14.13
2022-09-30T08:37:40.705Z,15.10
2022-09-30T08:40:18.997Z,16.33
2022-09-30T08:42:58.836Z,16.10
2022-09-30T08:45:44.180Z,15.23
2022-09-30T08:48:22.837Z,14.75
2022-09-30T08:51:15.089Z,13.82
2022-09-30T08:53:44.005Z,13.70
2022-09-30T08:56:23.323Z,11.70
2022-09-30T08:59:14.303Z,12.82
2022-09-30T09:01:45.830Z,12.65
2022-09-30T09:04:17.014Z,10.70
2022-09-30T09:07:19.969Z,9.80
2022-09-30T09:09:50.953Z,10.07
2022-09-30T09:12:24.200Z,9.85
2022-09-30T09:15:15.671Z,8.75
2022-09-30T09:18:23.138Z,8.30
2022-09-30T09:21:20.627Z,7.37
2022-09-30T09:23:49.961Z,7.00
2022-09-30T09:26:17.855Z,6.60
2022-09-30T09:29:06.994Z,6.87
2022-09-30T09:31:34.883Z,5.10
2022-09-30T09:34:10.235Z,4.00
2022-09-30T09:36:55.811Z,4.20
2022-09-30T09:39:45.117Z,4.78
2022-09-30T09:42:34.122Z,4.25
2022-09-30T09:45:22.963Z,4.10
2022-09-30T09:47:52.016Z,3.83
2022-09-30T09:50:26.150Z,4.28
2022-09-30T09:53:25.608Z,4.72
2022-09-30T09:56:00.203Z,4.35
2022-09-30T09:58:28.064Z,4.72
2022-09-30T10:01:12.137Z,4.37
2022-09-30T10:03:40.145Z,4.40
2022-09-30T10:06:10.323Z,4.95
2022-09-30T10:08:39.808Z,5.07
2022-09-30T10:11:18.519Z,4.53
2022-09-30T10:13:46.044Z,4.60
2022-09-30T10:16:35.422Z,4.47
2022-09-30T10:19:09.278Z,3.12
2022-09-30T10:21:37.299Z,3.40
2022-09-30T10:24:30.485Z,3.67
2022-09-30T10:26:58.150Z,3.17
2022-09-30T10:29:33.085Z,3.12
2022-09-30T10:32:02.604Z,3.05
2022-09-30T10:34:33.333Z,3.10
2022-09-30T10:37:20.023Z,2.60
2022-09-30T10:40:01.341Z,2.78
2022-09-30T10:42:31.781Z,1.85
2022-09-30T10:45:10.225Z,2.40
2022-09-30T10:47:44.647Z,2.50
2022-09-30T10:50:15.250Z,2.30
2022-09-30T10:53:01.143Z,1.50
2022-09-30T10:55:34.197Z,1.50
2022-09-30T10:58:36.131Z,1.60
2022-09-30T11:01:17.789Z,1.90
2022-09-30T11:04:01.641Z,1.42
2022-09-30T11:06:32.531Z,2.00
2022-09-30T11:09:14.810Z,1.77
2022-09-30T11:11:55.469Z,2.00
2022-09-30T11:15:03.299Z,2.00
2022-09-30T11:17:57.768Z,1.45
2022-09-30T11:20:29.571Z,1.60
2022-09-30T11:23:02.918Z,0.80
2022-09-30T11:25:59.810Z,1.40
2022-09-30T11:28:59.513Z,0.90
2022-09-30T11:31:37.191Z,1.00
2022-09-30T11:34:35.789Z,0.90
2022-09-30T11:37:41.000Z,0.90
2022-09-30T11:40:39.122Z,0.80
2022-09-30T11:43:22.117Z,0.93
2022-09-30T11:46:18.391Z,0.93
2022-09-30T11:48:52.888Z,1.30
2022-09-30T11:51:29.987Z,1.15
2022-09-30T11:54:23.052Z,1.60
2022-09-30T11:57:22.376Z,1.80
2022-09-30T12:00:16.607Z,1.77
2022-09-30T12:02:53.471Z,1.60
2022-09-30T12:05:26.486Z,1.30
2022-09-30T12:08:22.474Z,1.30
2022-09-30T12:10:54.284Z,0.85
2022-09-30T12:13:40.971Z,0.93
2022-09-30T12:16:16.241Z,1.40
2022-09-30T12:18:49.072Z,1.40
2022-09-30T12:21:26.750Z,1.10
2022-09-30T12:24:03.175Z,1.00
2022-09-30T12:26:31.216Z,1.00
2022-09-30T12:29:30.562Z,0.90
2022-09-30T12:32:13.205Z,0.90
2022-09-30T12:34:48.934Z,1.20
2022-09-30T12:37:47.354Z,1.00
2022-09-30T12:40:31.254Z,2.08
2022-09-30T12:43:36.405Z,1.73
2022-09-30T12:48:48.425Z,1.77
2022-09-30T12:51:25.853Z,1.58
2022-09-30T12:53:59.248Z,1.80
2022-09-30T12:56:29.017Z,1.70
2022-09-30T12:58:57.995Z,1.55
2022-09-30T13:01:28.348Z,1.80
2022-09-30T13:04:02.173Z,1.60
2022-09-30T13:06:47.625Z,1.60
2022-09-30T13:09:22.337Z,1.70
2022-09-30T13:11:55.367Z,2.33
2022-09-30T13:14:40.238Z,2.55
2022-09-30T13:17:07.696Z,2.87
2022-09-30T13:19:42.687Z,2.55
2022-09-30T13:22:24.030Z,3.28
2022-09-30T13:25:00.666Z,3.37
2022-09-30T13:27:48.059Z,3.15
2022-09-30T13:30:18.727Z,3.10
2022-09-30T13:33:06.424Z,3.05
2022-09-30T13:35:35.088Z,3.25
2022-09-30T13:38:14.580Z,3.15
2022-09-30T13:41:02.387Z,2.90
2022-09-30T13:43:46.515Z,2.67
2022-09-30T13:46:17.158Z,2.50
2022-09-30T13:48:55.752Z,2.45
2022-09-30T13:51:26.031Z,2.30
2022-09-30T13:53:56.392Z,2.40
2022-09-30T13:56:35.310Z,2.45
2022-09-30T13:59:15.197Z,1.85
2022-09-30T14:02:28.164Z,1.80
2022-09-30T14:05:24.989Z,2.17
2022-09-30T14:08:21.418Z,1.92
2022-09-30T14:11:24.425Z,1.87
2022-09-30T14:14:39.606Z,2.12
2022-09-30T14:17:30.125Z,1.37
2022-09-30T14:20:30.012Z,1.70
2022-09-30T14:22:57.774Z,1.80
2022-09-30T14:25:25.520Z,1.75
2022-09-30T14:28:04.981Z,1.60
2022-09-30T14:30:39.359Z,1.67
2022-09-30T14:33:24.241Z,1.50
2022-09-30T14:38:28.181Z,1.42
2022-09-30T14:41:06.258Z,1.80
2022-09-30T14:43:40.455Z,1.30
2022-09-30T14:46:35.280Z,1.60
2022-09-30T14:49:06.842Z,1.77
2022-09-30T14:51:37.943Z,2.20
2022-09-30T14:54:06.334Z,1.70
2022-09-30T14:56:36.172Z,1.92
2022-09-30T14:59:34.700Z,1.58
2022-09-30T15:02:05.216Z,1.45
2022-09-30T15:04:39.288Z,1.60
2022-09-30T15:07:10.515Z,1.37
2022-09-30T15:09:43.659Z,1.77
2022-09-30T15:12:22.563Z,1.48
2022-09-30T15:14:52.742Z,1.70
2022-09-30T15:17:21.694Z,1.60
2022-09-30T15:19:50.318Z,1.70
2022-09-30T15:22:18.473Z,4.40
2022-09-30T15:24:47.744Z,1.80
2022-09-30T15:27:21.225Z,2.22
2022-09-30T15:29:59.875Z,2.10
2022-09-30T15:32:30.056Z,1.58
2022-09-30T15:34:58.759Z,2.30
2022-09-30T15:37:33.851Z,2.00
2022-09-30T15:40:20.785Z,2.97
2022-09-30T15:43:01.297Z,2.67
2022-09-30T15:45:34.550Z,3.15
2022-09-30T15:48:28.101Z,2.90
2022-09-30T15:51:01.540Z,3.75
2022-09-30T15:53:46.707Z,4.85
2022-09-30T15:56:42.377Z,5.05
2022-09-30T16:01:41.416Z,3.40
2022-09-30T16:04:15.496Z,2.87
2022-09-30T16:07:08.920Z,2.35
2022-09-30T16:09:38.663Z,3.60
2022-09-30T16:12:12.062Z,4.35
2022-09-30T16:14:48.421Z,5.30
2022-09-30T16:17:19.999Z,4.28
2022-09-30T16:19:58.705Z,3.90
2022-09-30T16:22:40.986Z,4.47
2022-09-30T16:25:28.885Z,3.55
2022-09-30T16:28:13.761Z,3.87
2022-09-30T16:30:42.673Z,4.22
2022-09-30T16:33:10.632Z,4.10
2022-09-30T16:35:38.318Z,3.92
2022-09-30T16:38:07.474Z,3.75
2022-09-30T16:40:39.150Z,3.65
2022-09-30T16:43:08.025Z,3.30
2022-09-30T16:45:35.699Z,3.70
2022-09-30T16:48:19.067Z,4.62
2022-09-30T16:50:59.228Z,5.32
2022-09-30T16:53:26.671Z,4.40
2022-09-30T16:55:54.424Z,5.05
2022-09-30T16:58:22.135Z,5.15
2022-09-30T17:00:49.690Z,5.47
2022-09-30T17:03:18.366Z,5.30
2022-09-30T17:05:46.791Z,7.12
2022-09-30T17:08:15.825Z,8.13
2022-09-30T17:10:45.396Z,11.93
2022-09-30T17:13:16.282Z,11.10
2022-09-30T17:15:50.803Z,10.32
2022-09-30T17:18:19.178Z,7.87
2022-09-30T17:20:52.997Z,8.25
2022-09-30T17:23:21.984Z,13.85
2022-09-30T17:25:49.999Z,19.02
2022-09-30T17:28:19.546Z,17.40
2022-09-30T17:30:48.256Z,16.98
2022-09-30T17:33:17.605Z,15.80
2022-09-30T17:35:45.094Z,21.87
2022-09-30T17:38:13.581Z,26.75
2022-09-30T17:41:00.395Z,30.52
2022-09-30T17:43:27.787Z,30.50
2022-09-30T17:45:59.027Z,31.55
2022-09-30T17:48:26.586Z,29.40
2022-09-30T17:50:55.570Z,26.27
2022-09-30T17:53:23.752Z,30.83
2022-09-30T17:56:12.860Z,37.65
2022-09-30T17:58:40.585Z,26.62
2022-09-30T18:01:11.415Z,18.08
2022-09-30T18:03:39.174Z,17.05
2022-09-30T18:06:07.234Z,13.65
2022-09-30T18:08:35.805Z,12.45
2022-09-30T18:11:03.449Z,16.50
2022-09-30T18:13:30.777Z,20.35
2022-09-30T18:16:01.917Z,19.50
2022-09-30T18:18:29.877Z,18.10
2022-09-30T18:20:57.284Z,15.50
2022-09-30T18:23:24.677Z,15.13
2022-09-30T18:25:54.371Z,16.40
2022-09-30T18:28:21.823Z,18.55
2022-09-30T18:30:49.367Z,16.45
2022-09-30T18:33:20.973Z,13.80
2022-09-30T18:35:48.815Z,11.70
2022-09-30T18:38:16.186Z,10.07
2022-09-30T18:40:45.734Z,8.43
2022-09-30T18:43:14.544Z,7.68
2022-09-30T18:45:43.653Z,7.55
2022-09-30T18:48:11.771Z,7.70
2022-09-30T18:50:39.643Z,8.43
2022-09-30T18:53:10.040Z,6.28
2022-09-30T18:55:38.514Z,5.70
2022-09-30T18:58:06.225Z,5.30
2022-09-30T19:00:33.708Z,5.82
2022-09-30T19:03:01.604Z,5.90
2022-09-30T19:05:29.319Z,5.53
2022-09-30T19:07:57.056Z,6.53
2022-09-30T19:10:26.326Z,9.43
2022-09-30T19:12:53.709Z,9.75
2022-09-30T19:15:26.680Z,8.00
2022-09-30T19:17:55.173Z,7.90
2022-09-30T19:20:23.345Z,6.85
2022-09-30T19:22:51.974Z,6.68
2022-09-30T19:25:19.894Z,6.40
2022-09-30T19:27:49.566Z,5.70
2022-09-30T19:30:17.061Z,5.40
2022-09-30T19:32:46.467Z,5.12
2022-09-30T19:35:14.144Z,5.53
2022-09-30T19:37:54.131Z,5.50
2022-09-30T19:40:27.889Z,6.30
2022-09-30T19:42:55.374Z,5.30
2022-09-30T19:45:25.683Z,7.30
2022-09-30T19:47:55.946Z,5.60
2022-09-30T19:50:23.385Z,5.00
2022-09-30T19:52:57.424Z,5.55
2022-09-30T19:57:53.979Z,5.32
2022-09-30T20:00:24.830Z,5.50
2022-09-30T20:02:53.050Z,5.68
2022-09-30T20:05:20.685Z,5.70
2022-09-30T20:07:51.394Z,5.65
2022-09-30T20:10:19.600Z,6.05
2022-09-30T20:12:46.951Z,6.28
2022-09-30T20:15:32.785Z,6.70
2022-09-30T20:18:00.443Z,7.80
2022-09-30T20:20:37.231Z,10.32
2022-09-30T20:23:05.206Z,9.90
2022-09-30T20:25:34.730Z,9.70
2022-09-30T20:28:04.084Z,6.45
2022-09-30T20:30:32.503Z,7.07
2022-09-30T20:33:00.904Z,6.20
2022-09-30T20:35:28.747Z,5.95
2022-09-30T20:37:56.842Z,6.12
2022-09-30T20:40:24.207Z,6.20
2022-09-30T20:42:52.029Z,6.15
2022-09-30T20:45:19.780Z,6.28
2022-09-30T20:47:47.837Z,6.97
2022-09-30T20:50:35.114Z,7.18
2022-09-30T20:53:08.555Z,6.82
2022-09-30T20:55:43.374Z,6.75
2022-09-30T20:58:12.226Z,6.65
2022-09-30T21:00:40.998Z,6.65
2022-09-30T21:03:11.102Z,6.05
2022-09-30T21:05:38.686Z,6.30
2022-09-30T21:08:07.338Z,7.07
2022-09-30T21:10:37.169Z,5.97
2022-09-30T21:13:09.115Z,6.00
2022-09-30T21:15:37.627Z,6.55
2022-09-30T21:18:05.333Z,6.87
2022-09-30T21:20:32.837Z,8.40
2022-09-30T21:23:00.281Z,7.87
2022-09-30T21:25:27.893Z,7.10
2022-09-30T21:27:55.323Z,6.40
2022-09-30T21:30:23.189Z,6.82
2022-09-30T21:32:50.822Z,7.15
2022-09-30T21:35:18.408Z,7.05
2022-09-30T21:37:48.588Z,8.05
2022-09-30T21:40:16.220Z,8.02
2022-09-30T21:42:43.541Z,7.57
2022-09-30T21:45:11.216Z,7.30
2022-09-30T21:47:38.877Z,6.87
2022-09-30T21:50:06.841Z,7.55
2022-09-30T21:52:34.753Z,6.62
2022-09-30T21:55:03.063Z,7.10
2022-09-30T21:57:30.423Z,5.97
2022-09-30T21:59:57.968Z,6.22
2022-09-30T22:02:25.628Z,6.70
2022-09-30T22:04:53.255Z,7.07
2022-09-30T22:07:23.618Z,7.50
2022-09-30T22:09:51.014Z,7.60
2022-09-30T22:12:18.712Z,7.95
2022-09-30T22:14:46.165Z,7.00
2022-09-30T22:17:15.688Z,7.78
2022-09-30T22:19:43.363Z,8.15
2022-09-30T22:22:11.508Z,7.80
2022-09-30T22:24:38.899Z,7.62
2022-09-30T22:27:07.597Z,7.72
2022-09-30T22:29:35.522Z,8.38
2022-09-30T22:32:03.116Z,7.50
2022-09-30T22:34:49.479Z,8.43
2022-09-30T22:37:35.364Z,8.10
2022-09-30T22:40:03.090Z,9.20
2022-09-30T22:42:30.463Z,8.77
2022-09-30T22:44:57.829Z,8.32
2022-09-30T22:47:25.433Z,7.75
2022-09-30T22:49:52.892Z,7.93
2022-09-30T22:52:20.571Z,7.95
2022-09-30T22:54:48.184Z,7.43
2022-09-30T22:57:16.296Z,7.00
2022-09-30T22:59:44.659Z,7.93
2022-09-30T23:02:12.287Z,7.80
2022-09-30T23:04:39.669Z,8.43
2022-09-30T23:07:07.684Z,8.98
2022-09-30T23:09:35.428Z,8.00
2022-09-30T23:12:02.804Z,8.13
2022-09-30T23:14:30.122Z,8.38
2022-09-30T23:16:57.823Z,8.98
2022-09-30T23:19:25.350Z,8.63
2022-09-30T23:21:52.737Z,8.27
2022-09-30T23:24:20.472Z,8.40
2022-09-30T23:26:47.963Z,7.75
2022-09-30T23:29:15.853Z,8.20
2022-09-30T23:31:43.510Z,7.82
2022-09-30T23:34:11.074Z,8.10
2022-09-30T23:36:38.397Z,8.50
2022-09-30T23:39:18.216Z,8.38
2022-09-30T23:41:46.724Z,8.68
2022-09-30T23:44:17.879Z,8.48
2022-09-30T23:47:04.481Z,9.63
2022-09-30T23:49:34.945Z,9.40
2022-09-30T23:52:10.564Z,10.93
2022-09-30T23:54:41.607Z,10.63
2022-09-30T23:57:09.971Z,10.05
2022-09-30T23:59:37.930Z,11.43
